Main page
METAR-TAF:

METAR-TAF

Airports :

Monseñor Óscar Arnulfo Romero International Airport

El Salvador, El Salvador

latitude: 13-26N, longitude: 089-03W, elevation: 25 m

Current weather observation

The report was made 41 minutes ago, at 21:50 UTC
Wind 9 kt from the Southwest, varying between South and West
Temperature 32°C
Humidity 52%
Pressure 1008 hPa
Visibility 10 km or more
no clouds below 1500 m and no cumulonimbus

METAR: MSLP 182150Z 23009KT 190V260 CAVOK 32/21 Q1008 A2977 NOSIG

Time: 16:31 (22:31 UTC)

Forecast

The report was made 7 hours and 6 minutes ago, at 15:25 UTC
Forecast valid from 18 at 18 UTC to 19 at 18 UTC
Wind 12 kt from the South/Southwest
Visibility 10 km or more
Few clouds at a height of 6000 ft
From 19 at 0000 UTC
Wind 5 kt from the West/Northwest
Visibility 10 km or more
no clouds below 1500 m and no cumulonimbus
From 19 at 0300 UTC
Wind 7 kt from the North/Northeast

TAF: MSLP 181525Z 1818/1918 20012KT 9999 FEW060 TX37/1818Z TN24/1912Z FM190000 29005KT CAVOK FM190300 03007KT

Weather observations and forecasts of more than 4000 airports (METAR and TAF reports).

The available stations are represented by yellow and red dots on the map.

Hover mouse over dot to see the name of the station.

Then click to see weather observations and forecasts.

To change the map : click on the green buttons with a black cross to zoom in, on the green button with a dash to zoom out, or on the green arrows for adjacent maps.


METAR-TAF: